Terminal Aerodrome Forecast
Issued by NWS

Home | Current Version | Previous Version | Text Only | Print | Product List | Glossary On
Versions: 1 2 3 4 5 6 7 8 9 10 11 12 13 14 15 16
048
FTUS45 KTFX 241720
TAFGTF
TAF
KGTF 241720Z 2418/2518 VRB05KT P6SM FEW080 FEW250
     FM250000 04009KT P6SM FEW090 SCT200=

USA.gov is the U.S. government's official web portal to all federal, state and local government web resources and services.